Cutler, California
Current Conditions -  °F | °C
As of 7:55 AM on Saturday 25 Oct 2014 (Local Time) from KVIS Reporting Station
Clear Clear  
Wind Chill: 52°   Ceiling: Unl
Heat Index: 52°   Visibility: 10mi
Dew Point: 39°   Wind: 5mph
Humidity: 62%   Direction: 170°S
Pressure: 30.02"   Gusts: NA
Location:  36.52°N, 119.29°W
Report Text: KVIS 251455Z 17004KT 10SM CLR 11/04 A3002 RMK AO1 52014
Loading
Personal Weather Stations






























Interactive Weather Map
Tropical Storm Tracking
New forecast layout! Learn more

10-Day Weather Forecast

Advertisements
Track Severe Weather on mobile